VIR13 EGPH-EGLL
Flight info
| Callsign | VIR13 |
|---|---|
| Flight time | 0h 58m |
| Altitude | 31000 |
| Route | GOSAM P600 FENIK L612 NAVSO DCT AKOMU DCT VAMEB DCT NUGRA |
| Aircraft | A35K/H-SDE2E3GHIJ3J4J5LM1ORWXY/LB1D1 |
Departure
| Time | 2026-05-05 18:47 |
|---|---|
| Airport | Edinburgh Airport (EGPH) |
Arrival
| Time | 2026-05-05 19:45 |
|---|---|
| Airport | London Heathrow Airport (EGLL) |
| Time | Latitude | Longitude | Altitude | Speed | Heading |
|---|---|---|---|---|---|
| 2026-05-05 18:26 | 55.95023 | -3.36057 | 117 ft | 0 kts | 248° |
| 2026-05-05 18:39 | 55.95025 | -3.36046 | 122 ft | 3 kts | 248° |
| 2026-05-05 18:39 | 55.95034 | -3.36009 | 119 ft | 3 kts | 249° |
| 2026-05-05 18:40 | 55.95042 | -3.35971 | 122 ft | 3 kts | 249° |
| 2026-05-05 18:40 | 55.95049 | -3.35939 | 122 ft | 3 kts | 251° |
| 2026-05-05 18:40 | 55.95054 | -3.35901 | 121 ft | 3 kts | 270° |
| 2026-05-05 18:40 | 55.95051 | -3.35862 | 121 ft | 3 kts | 289° |
| 2026-05-05 18:41 | 55.95042 | -3.35825 | 122 ft | 3 kts | 298° |
| 2026-05-05 18:41 | 55.95040 | -3.35818 | 122 ft | 0 kts | 298° |
| 2026-05-05 18:42 | 55.95045 | -3.35834 | 117 ft | 4 kts | 298° |
| 2026-05-05 18:42 | 55.95071 | -3.35921 | 117 ft | 11 kts | 298° |
| 2026-05-05 18:43 | 55.95106 | -3.36067 | 122 ft | 15 kts | 290° |
| 2026-05-05 18:43 | 55.95122 | -3.36261 | 121 ft | 18 kts | 257° |
| 2026-05-05 18:43 | 55.95068 | -3.36479 | 117 ft | 21 kts | 238° |
| 2026-05-05 18:43 | 55.94986 | -3.36715 | 122 ft | 24 kts | 239° |
| 2026-05-05 18:44 | 55.94896 | -3.36983 | 117 ft | 27 kts | 239° |
| 2026-05-05 18:44 | 55.94796 | -3.37278 | 118 ft | 29 kts | 239° |
| 2026-05-05 18:44 | 55.94687 | -3.37598 | 117 ft | 31 kts | 239° |
| 2026-05-05 18:44 | 55.94584 | -3.37904 | 118 ft | 29 kts | 238° |
| 2026-05-05 18:45 | 55.94489 | -3.38184 | 117 ft | 18 kts | 238° |
| 2026-05-05 18:45 | 55.94417 | -3.38396 | 118 ft | 22 kts | 238° |
| 2026-05-05 18:45 | 55.94334 | -3.38641 | 118 ft | 23 kts | 238° |
| 2026-05-05 18:45 | 55.94298 | -3.38851 | 117 ft | 15 kts | 299° |
| 2026-05-05 18:46 | 55.94386 | -3.38963 | 118 ft | 16 kts | 349° |
| 2026-05-05 18:46 | 55.94450 | -3.38869 | 119 ft | 13 kts | 58° |
| 2026-05-05 18:46 | 55.94614 | -3.38380 | 115 ft | 89 kts | 59° |
| 2026-05-05 18:46 | 55.95073 | -3.37013 | 141 ft | 163 kts | 58° |
| 2026-05-05 18:47 | 55.95646 | -3.35258 | 1014 ft | 165 kts | 62° |
| 2026-05-05 18:47 | 55.96317 | -3.33580 | 1981 ft | 173 kts | 44° |
| 2026-05-05 18:47 | 55.97465 | -3.32562 | 2452 ft | 203 kts | 13° |
| 2026-05-05 18:47 | 55.98934 | -3.32920 | 2987 ft | 226 kts | 338° |
| 2026-05-05 18:48 | 56.00136 | -3.34856 | 3633 ft | 247 kts | 303° |
| 2026-05-05 18:48 | 56.00773 | -3.37806 | 4361 ft | 260 kts | 288° |
| 2026-05-05 18:48 | 56.01258 | -3.40959 | 5218 ft | 266 kts | 288° |
| 2026-05-05 18:48 | 56.01505 | -3.44265 | 6135 ft | 272 kts | 271° |
| 2026-05-05 18:49 | 56.01093 | -3.47577 | 7145 ft | 278 kts | 246° |
| 2026-05-05 18:49 | 55.99949 | -3.50302 | 8174 ft | 280 kts | 226° |
| 2026-05-05 18:49 | 55.98452 | -3.52541 | 9206 ft | 283 kts | 217° |
| 2026-05-05 18:49 | 55.96794 | -3.54482 | 10188 ft | 287 kts | 212° |
| 2026-05-05 18:50 | 55.95029 | -3.56344 | 10865 ft | 305 kts | 212° |
| 2026-05-05 18:50 | 55.93124 | -3.58325 | 11287 ft | 329 kts | 213° |
| 2026-05-05 18:50 | 55.91096 | -3.60493 | 11732 ft | 349 kts | 214° |
| 2026-05-05 18:50 | 55.89004 | -3.62801 | 12490 ft | 357 kts | 215° |
| 2026-05-05 18:51 | 55.86892 | -3.65182 | 13371 ft | 362 kts | 215° |
| 2026-05-05 18:51 | 55.84762 | -3.67617 | 14225 ft | 366 kts | 216° |
| 2026-05-05 18:51 | 55.82606 | -3.70095 | 15063 ft | 371 kts | 216° |
| 2026-05-05 18:51 | 55.80428 | -3.72602 | 15891 ft | 375 kts | 216° |
| 2026-05-05 18:52 | 55.78228 | -3.75129 | 16695 ft | 379 kts | 216° |
| 2026-05-05 18:52 | 55.76006 | -3.77688 | 17493 ft | 380 kts | 215° |
| 2026-05-05 18:52 | 55.73770 | -3.80262 | 18250 ft | 386 kts | 216° |
| 2026-05-05 18:52 | 55.71503 | -3.82882 | 19042 ft | 391 kts | 216° |
| 2026-05-05 18:53 | 55.69205 | -3.85499 | 19850 ft | 395 kts | 215° |
| 2026-05-05 18:53 | 55.66877 | -3.88127 | 20633 ft | 398 kts | 215° |
| 2026-05-05 18:53 | 55.64527 | -3.90768 | 21390 ft | 403 kts | 215° |
| 2026-05-05 18:53 | 55.62146 | -3.93448 | 22107 ft | 407 kts | 215° |
| 2026-05-05 18:54 | 55.59749 | -3.96149 | 22807 ft | 411 kts | 215° |
| 2026-05-05 18:54 | 55.57279 | -3.98768 | 23487 ft | 417 kts | 211° |
| 2026-05-05 18:54 | 55.54616 | -4.00880 | 24192 ft | 423 kts | 202° |
| 2026-05-05 18:54 | 55.51758 | -4.02271 | 24870 ft | 430 kts | 193° |
| 2026-05-05 18:55 | 55.48753 | -4.02789 | 25503 ft | 439 kts | 183° |
| 2026-05-05 18:55 | 55.45688 | -4.02295 | 26118 ft | 447 kts | 172° |
| 2026-05-05 18:55 | 55.42664 | -4.00805 | 26680 ft | 456 kts | 163° |
| 2026-05-05 18:55 | 55.39732 | -3.98588 | 27270 ft | 462 kts | 157° |
| 2026-05-05 18:56 | 55.36869 | -3.95947 | 27858 ft | 467 kts | 154° |
| 2026-05-05 18:56 | 55.34033 | -3.93106 | 28405 ft | 471 kts | 153° |
| 2026-05-05 18:56 | 55.31186 | -3.90196 | 28935 ft | 475 kts | 153° |
| 2026-05-05 18:56 | 55.28319 | -3.87294 | 29460 ft | 478 kts | 153° |
| 2026-05-05 18:57 | 55.25417 | -3.84410 | 29949 ft | 481 kts | 154° |
| 2026-05-05 18:57 | 55.22483 | -3.81546 | 30438 ft | 484 kts | 154° |
| 2026-05-05 18:57 | 55.19553 | -3.78779 | 30864 ft | 486 kts | 156° |
| 2026-05-05 18:57 | 55.16485 | -3.76088 | 31071 ft | 487 kts | 157° |
| 2026-05-05 18:58 | 55.10417 | -3.71004 | 31076 ft | 487 kts | 158° |
| 2026-05-05 18:58 | 55.04305 | -3.65908 | 31069 ft | 487 kts | 157° |
| 2026-05-05 18:59 | 54.98213 | -3.60756 | 31076 ft | 487 kts | 157° |
| 2026-05-05 18:59 | 54.92132 | -3.55590 | 31069 ft | 486 kts | 157° |
| 2026-05-05 19:00 | 54.86058 | -3.50437 | 31052 ft | 486 kts | 157° |
| 2026-05-05 19:00 | 54.79986 | -3.45305 | 31051 ft | 485 kts | 157° |
| 2026-05-05 19:01 | 54.73914 | -3.40198 | 31051 ft | 485 kts | 157° |
| 2026-05-05 19:01 | 54.67846 | -3.35105 | 31067 ft | 485 kts | 157° |
| 2026-05-05 19:02 | 54.61772 | -3.30028 | 31062 ft | 485 kts | 157° |
| 2026-05-05 19:02 | 54.55707 | -3.24971 | 31055 ft | 484 kts | 157° |
| 2026-05-05 19:03 | 54.49679 | -3.19962 | 31052 ft | 484 kts | 157° |
| 2026-05-05 19:03 | 54.43574 | -3.14904 | 31053 ft | 484 kts | 157° |
| 2026-05-05 19:04 | 54.37551 | -3.09935 | 31049 ft | 483 kts | 157° |
| 2026-05-05 19:04 | 54.31493 | -3.04950 | 31052 ft | 484 kts | 157° |
| 2026-05-05 19:05 | 54.25378 | -2.99933 | 31046 ft | 484 kts | 157° |
| 2026-05-05 19:05 | 54.19310 | -2.94976 | 31036 ft | 483 kts | 157° |
| 2026-05-05 19:06 | 54.14259 | -2.90916 | 31036 ft | 483 kts | 159° |
| 2026-05-05 19:06 | 54.07077 | -2.85718 | 31029 ft | 482 kts | 160° |
| 2026-05-05 19:07 | 54.01883 | -2.82050 | 31026 ft | 482 kts | 160° |
| 2026-05-05 19:07 | 53.95549 | -2.78431 | 31026 ft | 480 kts | 165° |
| 2026-05-05 19:08 | 53.89189 | -2.75040 | 31019 ft | 479 kts | 165° |
| 2026-05-05 19:08 | 53.82825 | -2.71673 | 31024 ft | 479 kts | 165° |
| 2026-05-05 19:09 | 53.76456 | -2.68320 | 31017 ft | 479 kts | 165° |
| 2026-05-05 19:09 | 53.70088 | -2.64981 | 31027 ft | 479 kts | 165° |
| 2026-05-05 19:10 | 53.63773 | -2.61681 | 31026 ft | 479 kts | 165° |
| 2026-05-05 19:10 | 53.57410 | -2.58363 | 31026 ft | 479 kts | 165° |
| 2026-05-05 19:11 | 53.51718 | -2.55403 | 31026 ft | 479 kts | 165° |
| 2026-05-05 19:11 | 53.45355 | -2.52105 | 31027 ft | 478 kts | 165° |
| 2026-05-05 19:12 | 53.38997 | -2.48821 | 31026 ft | 478 kts | 165° |
| 2026-05-05 19:12 | 53.32638 | -2.45546 | 31027 ft | 478 kts | 165° |
| 2026-05-05 19:13 | 53.26281 | -2.42283 | 31027 ft | 478 kts | 165° |
| 2026-05-05 19:13 | 53.19928 | -2.39031 | 31026 ft | 477 kts | 165° |
| 2026-05-05 19:14 | 53.13588 | -2.35795 | 31027 ft | 477 kts | 165° |
| 2026-05-05 19:14 | 53.07253 | -2.32573 | 31027 ft | 476 kts | 165° |
| 2026-05-05 19:15 | 53.01102 | -2.28472 | 31030 ft | 479 kts | 151° |
| 2026-05-05 19:15 | 52.95460 | -2.22574 | 31018 ft | 479 kts | 149° |
| 2026-05-05 19:16 | 52.89839 | -2.16649 | 31017 ft | 479 kts | 150° |
| 2026-05-05 19:16 | 52.84208 | -2.10754 | 31008 ft | 478 kts | 150° |
| 2026-05-05 19:17 | 52.78583 | -2.04898 | 31013 ft | 477 kts | 150° |
| 2026-05-05 19:17 | 52.72963 | -1.99066 | 31009 ft | 477 kts | 150° |
| 2026-05-05 19:18 | 52.67350 | -1.93260 | 30817 ft | 480 kts | 150° |
| 2026-05-05 19:18 | 52.64508 | -1.90330 | 30360 ft | 480 kts | 150° |
| 2026-05-05 19:18 | 52.61680 | -1.87416 | 29456 ft | 481 kts | 150° |
| 2026-05-05 19:19 | 52.58842 | -1.84495 | 28620 ft | 480 kts | 150° |
| 2026-05-05 19:19 | 52.56029 | -1.81601 | 27986 ft | 474 kts | 150° |
| 2026-05-05 19:19 | 52.53247 | -1.78747 | 27357 ft | 469 kts | 150° |
| 2026-05-05 19:19 | 52.50499 | -1.75933 | 26732 ft | 464 kts | 150° |
| 2026-05-05 19:20 | 52.47774 | -1.73147 | 26095 ft | 460 kts | 150° |
| 2026-05-05 19:20 | 52.45072 | -1.70388 | 25467 ft | 455 kts | 150° |
| 2026-05-05 19:20 | 52.42394 | -1.67657 | 24844 ft | 451 kts | 150° |
| 2026-05-05 19:20 | 52.39746 | -1.64962 | 24235 ft | 446 kts | 150° |
| 2026-05-05 19:21 | 52.37121 | -1.62294 | 23619 ft | 442 kts | 150° |
| 2026-05-05 19:21 | 52.34516 | -1.59650 | 23005 ft | 438 kts | 150° |
| 2026-05-05 19:21 | 52.31939 | -1.57037 | 22407 ft | 434 kts | 150° |
| 2026-05-05 19:21 | 52.29382 | -1.54449 | 21791 ft | 431 kts | 150° |
| 2026-05-05 19:22 | 52.26844 | -1.51883 | 21181 ft | 427 kts | 150° |
| 2026-05-05 19:22 | 52.24329 | -1.49343 | 20591 ft | 423 kts | 150° |
| 2026-05-05 19:22 | 52.21844 | -1.46740 | 20132 ft | 430 kts | 146° |
| 2026-05-05 19:22 | 52.19492 | -1.43674 | 19747 ft | 432 kts | 141° |
| 2026-05-05 19:23 | 52.17214 | -1.40499 | 19146 ft | 429 kts | 140° |
| 2026-05-05 19:23 | 52.14957 | -1.37334 | 18658 ft | 430 kts | 140° |
| 2026-05-05 19:23 | 52.12685 | -1.34159 | 18217 ft | 428 kts | 140° |
| 2026-05-05 19:23 | 52.10435 | -1.31022 | 17792 ft | 425 kts | 140° |
| 2026-05-05 19:24 | 52.08196 | -1.27905 | 17339 ft | 422 kts | 140° |
| 2026-05-05 19:24 | 52.05971 | -1.24812 | 16907 ft | 419 kts | 140° |
| 2026-05-05 19:24 | 52.03763 | -1.21747 | 16481 ft | 417 kts | 140° |
| 2026-05-05 19:24 | 52.01559 | -1.18693 | 16059 ft | 415 kts | 140° |
| 2026-05-05 19:25 | 51.99371 | -1.15663 | 15634 ft | 413 kts | 140° |
| 2026-05-05 19:25 | 51.97193 | -1.12652 | 15265 ft | 407 kts | 140° |
| 2026-05-05 19:25 | 51.95073 | -1.09724 | 14983 ft | 395 kts | 140° |
| 2026-05-05 19:25 | 51.92994 | -1.06851 | 14309 ft | 393 kts | 140° |
| 2026-05-05 19:26 | 51.90901 | -1.03973 | 13721 ft | 394 kts | 140° |
| 2026-05-05 19:26 | 51.88829 | -1.01127 | 13195 ft | 386 kts | 140° |
| 2026-05-05 19:26 | 51.86812 | -0.98357 | 12780 ft | 369 kts | 140° |
| 2026-05-05 19:26 | 51.85072 | -0.95522 | 12306 ft | 345 kts | 124° |
| 2026-05-05 19:27 | 51.83954 | -0.92236 | 11864 ft | 324 kts | 116° |
| 2026-05-05 19:27 | 51.82992 | -0.88980 | 11140 ft | 316 kts | 115° |
| 2026-05-05 19:27 | 51.82070 | -0.85873 | 10796 ft | 297 kts | 115° |
| 2026-05-05 19:27 | 51.81200 | -0.82976 | 10512 ft | 277 kts | 116° |
| 2026-05-05 19:28 | 51.80374 | -0.80248 | 10128 ft | 264 kts | 116° |
| 2026-05-05 19:28 | 51.79571 | -0.77607 | 9650 ft | 262 kts | 116° |
| 2026-05-05 19:28 | 51.78770 | -0.74987 | 9332 ft | 258 kts | 116° |
| 2026-05-05 19:28 | 51.77983 | -0.72415 | 9045 ft | 254 kts | 116° |
| 2026-05-05 19:29 | 51.77199 | -0.69865 | 8971 ft | 253 kts | 116° |
| 2026-05-05 19:29 | 51.76427 | -0.67360 | 8963 ft | 254 kts | 116° |
| 2026-05-05 19:29 | 51.75626 | -0.64763 | 8963 ft | 254 kts | 116° |
| 2026-05-05 19:29 | 51.74839 | -0.62222 | 8962 ft | 253 kts | 116° |
| 2026-05-05 19:30 | 51.74062 | -0.59721 | 8953 ft | 253 kts | 116° |
| 2026-05-05 19:30 | 51.73273 | -0.57193 | 8949 ft | 252 kts | 116° |
| 2026-05-05 19:30 | 51.72404 | -0.54728 | 8943 ft | 254 kts | 127° |
| 2026-05-05 19:30 | 51.71018 | -0.53013 | 8952 ft | 254 kts | 157° |
| 2026-05-05 19:31 | 51.69292 | -0.52471 | 8950 ft | 254 kts | 177° |
| 2026-05-05 19:31 | 51.67517 | -0.52437 | 8951 ft | 256 kts | 180° |
| 2026-05-05 19:31 | 51.65736 | -0.52476 | 8944 ft | 256 kts | 181° |
| 2026-05-05 19:31 | 51.63959 | -0.52526 | 8943 ft | 255 kts | 181° |
| 2026-05-05 19:32 | 51.62187 | -0.52612 | 8939 ft | 254 kts | 185° |
| 2026-05-05 19:32 | 51.60537 | -0.53470 | 8664 ft | 250 kts | 213° |
| 2026-05-05 19:32 | 51.59348 | -0.55485 | 8230 ft | 249 kts | 243° |
| 2026-05-05 19:32 | 51.58905 | -0.58119 | 7991 ft | 245 kts | 267° |
| 2026-05-05 19:33 | 51.58821 | -0.60862 | 7925 ft | 246 kts | 270° |
| 2026-05-05 19:33 | 51.58787 | -0.63592 | 7610 ft | 243 kts | 271° |
| 2026-05-05 19:33 | 51.58756 | -0.66317 | 7236 ft | 244 kts | 271° |
| 2026-05-05 19:33 | 51.58721 | -0.69070 | 6881 ft | 243 kts | 271° |
| 2026-05-05 19:34 | 51.58680 | -0.71746 | 6522 ft | 241 kts | 271° |
| 2026-05-05 19:34 | 51.58634 | -0.74441 | 6179 ft | 240 kts | 271° |
| 2026-05-05 19:34 | 51.58584 | -0.77111 | 6025 ft | 240 kts | 271° |
| 2026-05-05 19:35 | 51.58476 | -0.82506 | 6016 ft | 239 kts | 271° |
| 2026-05-05 19:35 | 51.58385 | -0.85135 | 6012 ft | 239 kts | 264° |
| 2026-05-05 19:35 | 51.57754 | -0.87482 | 6043 ft | 222 kts | 232° |
| 2026-05-05 19:35 | 51.56700 | -0.89161 | 5997 ft | 207 kts | 222° |
| 2026-05-05 19:36 | 51.55605 | -0.90633 | 5725 ft | 204 kts | 221° |
| 2026-05-05 19:36 | 51.54504 | -0.92080 | 5389 ft | 205 kts | 221° |
| 2026-05-05 19:36 | 51.53403 | -0.93522 | 5079 ft | 204 kts | 220° |
| 2026-05-05 19:36 | 51.52306 | -0.94959 | 4782 ft | 202 kts | 221° |
| 2026-05-05 19:37 | 51.51219 | -0.96377 | 4437 ft | 202 kts | 220° |
| 2026-05-05 19:37 | 51.49982 | -0.97414 | 4106 ft | 203 kts | 191° |
| 2026-05-05 19:37 | 51.48634 | -0.97024 | 4020 ft | 199 kts | 144° |
| 2026-05-05 19:37 | 51.48133 | -0.96231 | 4002 ft | 193 kts | 120° |
| 2026-05-05 19:38 | 51.47733 | -0.94225 | 4015 ft | 188 kts | 95° |
| 2026-05-05 19:38 | 51.47630 | -0.92138 | 4016 ft | 188 kts | 89° |
| 2026-05-05 19:38 | 51.47609 | -0.90044 | 4006 ft | 186 kts | 86° |
| 2026-05-05 19:38 | 51.47616 | -0.88075 | 4018 ft | 170 kts | 85° |
| 2026-05-05 19:39 | 51.47625 | -0.86192 | 4003 ft | 166 kts | 85° |
| 2026-05-05 19:39 | 51.47631 | -0.84341 | 4008 ft | 167 kts | 86° |
| 2026-05-05 19:39 | 51.47633 | -0.82473 | 4018 ft | 167 kts | 86° |
| 2026-05-05 19:39 | 51.47634 | -0.80619 | 3975 ft | 167 kts | 86° |
| 2026-05-05 19:40 | 51.47636 | -0.78758 | 3804 ft | 167 kts | 86° |
| 2026-05-05 19:40 | 51.47646 | -0.76901 | 3556 ft | 166 kts | 85° |
| 2026-05-05 19:40 | 51.47654 | -0.75056 | 3320 ft | 165 kts | 86° |
| 2026-05-05 19:40 | 51.47660 | -0.73216 | 3091 ft | 164 kts | 86° |
| 2026-05-05 19:41 | 51.47667 | -0.71388 | 2858 ft | 164 kts | 86° |
| 2026-05-05 19:41 | 51.47673 | -0.69563 | 2644 ft | 163 kts | 86° |
| 2026-05-05 19:41 | 51.47679 | -0.67751 | 2426 ft | 162 kts | 86° |
| 2026-05-05 19:41 | 51.47685 | -0.65983 | 2210 ft | 157 kts | 86° |
| 2026-05-05 19:42 | 51.47691 | -0.64274 | 2010 ft | 146 kts | 86° |
| 2026-05-05 19:42 | 51.47696 | -0.62717 | 1826 ft | 138 kts | 86° |
| 2026-05-05 19:42 | 51.47702 | -0.61196 | 1648 ft | 136 kts | 86° |
| 2026-05-05 19:42 | 51.47708 | -0.59679 | 1465 ft | 136 kts | 86° |
| 2026-05-05 19:43 | 51.47711 | -0.58165 | 1265 ft | 135 kts | 87° |
| 2026-05-05 19:43 | 51.47710 | -0.56659 | 1047 ft | 135 kts | 86° |
| 2026-05-05 19:43 | 51.47711 | -0.55162 | 906 ft | 135 kts | 86° |
| 2026-05-05 19:43 | 51.47716 | -0.53650 | 743 ft | 136 kts | 87° |
| 2026-05-05 19:44 | 51.47727 | -0.52147 | 560 ft | 134 kts | 86° |
| 2026-05-05 19:44 | 51.47733 | -0.50612 | 391 ft | 137 kts | 86° |
| 2026-05-05 19:44 | 51.47745 | -0.49106 | 201 ft | 136 kts | 86° |
| 2026-05-05 19:44 | 51.47755 | -0.47584 | 93 ft | 132 kts | 88° |
| 2026-05-05 19:45 | 51.47758 | -0.46392 | 94 ft | 80 kts | 91° |
| 2026-05-05 19:45 | 51.47756 | -0.45751 | 92 ft | 47 kts | 90° |
| 2026-05-05 19:45 | 51.47718 | -0.45490 | 95 ft | 12 kts | 142° |
| 2026-05-05 19:45 | 51.47667 | -0.45469 | 94 ft | 5 kts | 178° |
| 2026-05-05 19:46 | 51.47642 | -0.45468 | 92 ft | 4 kts | 180° |
| 2026-05-05 19:46 | 51.47594 | -0.45468 | 95 ft | 10 kts | 180° |
| 2026-05-05 19:46 | 51.47522 | -0.45516 | 93 ft | 13 kts | 236° |
| 2026-05-05 19:46 | 51.47512 | -0.45673 | 92 ft | 16 kts | 271° |
| 2026-05-05 19:47 | 51.47516 | -0.45867 | 94 ft | 19 kts | 271° |
| 2026-05-05 19:47 | 51.47517 | -0.46097 | 92 ft | 22 kts | 269° |
| 2026-05-05 19:47 | 51.47516 | -0.46352 | 92 ft | 24 kts | 270° |
| 2026-05-05 19:47 | 51.47516 | -0.46604 | 92 ft | 17 kts | 269° |
| 2026-05-05 19:48 | 51.47474 | -0.46745 | 93 ft | 12 kts | 197° |
| 2026-05-05 19:48 | 51.47399 | -0.46735 | 92 ft | 13 kts | 169° |
| 2026-05-05 19:48 | 51.47306 | -0.46726 | 92 ft | 11 kts | 179° |
| 2026-05-05 19:48 | 51.47243 | -0.46664 | 93 ft | 12 kts | 105° |
| 2026-05-05 19:49 | 51.47239 | -0.46506 | 92 ft | 16 kts | 90° |
| 2026-05-05 19:49 | 51.47222 | -0.46407 | 92 ft | 13 kts | 130° |
| 2026-05-05 19:49 | 51.47171 | -0.46346 | 92 ft | 4 kts | 145° |
| 2026-05-05 19:49 | 51.47141 | -0.46337 | 92 ft | 5 kts | 192° |
| 2026-05-05 19:50 | 51.47112 | -0.46378 | 94 ft | 4 kts | 236° |
| 2026-05-05 19:50 | 51.47100 | -0.46407 | 91 ft | 4 kts | 236° |
| 2026-05-05 19:50 | 51.47094 | -0.46421 | 92 ft | 1 kts | 235° |